createdAt,value
2022-11-05T00:01:02.326Z,99.90
2022-11-05T00:03:47.767Z,99.90
2022-11-05T00:06:34.740Z,99.90
2022-11-05T00:09:20.067Z,99.90
2022-11-05T00:12:05.454Z,99.90
2022-11-05T00:14:50.775Z,99.90
2022-11-05T00:17:17.375Z,99.90
2022-11-05T00:19:43.922Z,99.90
2022-11-05T00:22:29.070Z,99.90
2022-11-05T00:25:14.274Z,99.90
2022-11-05T00:27:41.143Z,99.90
2022-11-05T00:30:09.125Z,99.90
2022-11-05T00:32:35.710Z,99.90
2022-11-05T00:35:02.369Z,99.90
2022-11-05T00:37:29.795Z,99.90
2022-11-05T00:39:56.378Z,99.90
2022-11-05T00:42:41.547Z,99.90
2022-11-05T00:45:08.549Z,99.90
2022-11-05T00:47:53.692Z,99.90
2022-11-05T00:50:22.144Z,99.90
2022-11-05T00:52:55.995Z,99.90
2022-11-05T00:55:38.079Z,99.90
2022-11-05T00:58:10.344Z,99.90
2022-11-05T01:00:39.463Z,99.90
2022-11-05T01:03:12.437Z,99.90
2022-11-05T01:05:47.851Z,99.90
2022-11-05T01:08:16.440Z,99.90
2022-11-05T01:10:51.167Z,99.90
2022-11-05T01:13:23.950Z,99.90
2022-11-05T01:15:53.416Z,99.90
2022-11-05T01:18:21.238Z,99.90
2022-11-05T01:20:48.356Z,99.90
2022-11-05T01:23:15.698Z,99.90
2022-11-05T01:25:42.993Z,99.90
2022-11-05T01:28:10.041Z,99.90
2022-11-05T01:30:37.470Z,99.90
2022-11-05T01:33:04.287Z,99.90
2022-11-05T01:35:30.894Z,99.90
2022-11-05T01:37:57.536Z,99.90
2022-11-05T01:40:25.296Z,99.90
2022-11-05T01:42:51.909Z,99.90
2022-11-05T01:45:28.902Z,99.90
2022-11-05T01:48:11.079Z,99.90
2022-11-05T01:50:56.706Z,99.90
2022-11-05T01:53:29.169Z,99.90
2022-11-05T01:56:02.392Z,99.90
2022-11-05T01:58:34.599Z,99.90
2022-11-05T02:01:01.754Z,99.90
2022-11-05T02:03:28.721Z,99.90
2022-11-05T02:05:57.388Z,99.90
2022-11-05T02:08:36.561Z,99.90
2022-11-05T02:11:03.326Z,99.90
2022-11-05T02:13:29.966Z,99.90
2022-11-05T02:16:34.927Z,99.90
2022-11-05T02:19:38.930Z,99.90
2022-11-05T02:22:24.589Z,99.90
2022-11-05T02:24:56.910Z,99.90
2022-11-05T02:27:45.061Z,99.90
2022-11-05T02:30:38.843Z,99.90
2022-11-05T02:33:30.139Z,99.90
2022-11-05T02:36:05.504Z,99.90
2022-11-05T02:38:50.230Z,99.90
2022-11-05T02:41:54.064Z,99.90
2022-11-05T02:45:05.166Z,99.90
2022-11-05T02:47:47.441Z,99.90
2022-11-05T02:50:23.502Z,99.90
2022-11-05T02:53:30.169Z,99.90
2022-11-05T02:56:01.204Z,99.90
2022-11-05T02:58:28.854Z,99.90
2022-11-05T03:00:57.202Z,99.90
2022-11-05T03:03:29.262Z,99.90
2022-11-05T03:06:13.483Z,99.90
2022-11-05T03:09:12.109Z,99.90
2022-11-05T03:12:12.988Z,99.90
2022-11-05T03:15:10.162Z,99.90
2022-11-05T03:17:55.956Z,99.90
2022-11-05T03:20:31.892Z,99.90
2022-11-05T03:23:26.590Z,99.90
2022-11-05T03:26:22.197Z,99.90
2022-11-05T03:28:55.735Z,99.90
2022-11-05T03:31:23.241Z,99.90
2022-11-05T03:33:53.226Z,99.90
2022-11-05T03:36:26.631Z,99.90
2022-11-05T03:38:56.144Z,99.90
2022-11-05T03:41:25.183Z,99.90
2022-11-05T03:43:57.202Z,99.90
2022-11-05T03:46:32.349Z,99.90
2022-11-05T03:49:02.972Z,99.90
2022-11-05T03:51:43.085Z,99.90
2022-11-05T03:54:10.688Z,99.90
2022-11-05T03:57:14.855Z,99.90
2022-11-05T03:59:45.084Z,99.90
2022-11-05T04:02:14.595Z,99.90
2022-11-05T04:04:41.611Z,99.90
2022-11-05T04:07:28.708Z,99.90
2022-11-05T04:10:14.229Z,99.90
2022-11-05T04:12:59.609Z,99.90
2022-11-05T04:15:26.955Z,99.90
2022-11-05T04:17:53.950Z,99.90
2022-11-05T04:20:39.086Z,99.90
2022-11-05T04:23:26.047Z,99.90
2022-11-05T04:25:52.635Z,99.90
2022-11-05T04:28:19.268Z,99.90
2022-11-05T04:30:45.908Z,99.90
2022-11-05T04:33:17.140Z,99.90
2022-11-05T04:35:45.182Z,99.90
2022-11-05T04:38:14.816Z,99.90
2022-11-05T04:40:42.052Z,99.90
2022-11-05T04:43:14.882Z,99.90
2022-11-05T04:45:42.477Z,99.90
2022-11-05T04:48:09.373Z,99.90
2022-11-05T04:50:36.285Z,99.90
2022-11-05T04:53:03.103Z,99.90
2022-11-05T04:55:29.934Z,99.90
2022-11-05T04:57:56.527Z,99.90
2022-11-05T05:00:24.252Z,99.90
2022-11-05T05:02:51.008Z,99.90
2022-11-05T05:05:17.727Z,99.90
2022-11-05T05:07:44.430Z,99.90
2022-11-05T05:10:11.795Z,99.90
2022-11-05T05:12:38.527Z,99.90
2022-11-05T05:15:05.942Z,99.90
2022-11-05T05:17:32.591Z,99.90
2022-11-05T05:20:17.863Z,99.90
2022-11-05T05:22:50.759Z,99.90
2022-11-05T05:25:17.481Z,99.90
2022-11-05T05:27:44.059Z,99.90
2022-11-05T05:30:11.065Z,99.90
2022-11-05T05:32:37.758Z,99.90
2022-11-05T05:35:04.614Z,99.90
2022-11-05T05:37:31.229Z,99.90
2022-11-05T05:39:57.872Z,99.90
2022-11-05T05:42:24.500Z,99.90
2022-11-05T05:44:51.274Z,99.90
2022-11-05T05:47:17.840Z,99.90
2022-11-05T05:49:44.482Z,99.90
2022-11-05T05:52:11.051Z,99.90
2022-11-05T05:54:42.428Z,99.90
2022-11-05T05:57:09.752Z,99.90
2022-11-05T05:59:36.371Z,99.90
2022-11-05T06:02:03.142Z,99.90
2022-11-05T06:04:30.078Z,99.90
2022-11-05T06:06:56.661Z,99.90
2022-11-05T06:09:23.247Z,99.90
2022-11-05T06:11:49.998Z,99.90
2022-11-05T06:14:16.593Z,99.90
2022-11-05T06:16:43.189Z,99.90
2022-11-05T06:19:09.980Z,99.90
2022-11-05T06:21:36.644Z,99.90
2022-11-05T06:24:03.563Z,99.90
2022-11-05T06:26:30.592Z,99.90
2022-11-05T06:28:57.368Z,99.90
2022-11-05T06:31:24.304Z,99.90
2022-11-05T06:33:51.049Z,99.90
2022-11-05T06:36:19.190Z,99.90
2022-11-05T06:38:46.023Z,99.90
2022-11-05T06:41:12.719Z,99.90
2022-11-05T06:43:39.499Z,99.90
2022-11-05T06:46:06.690Z,99.90
2022-11-05T06:48:33.471Z,99.90
2022-11-05T06:51:00.127Z,99.90
2022-11-05T06:53:27.340Z,99.90
2022-11-05T06:55:53.959Z,99.90
2022-11-05T06:58:20.721Z,99.90
2022-11-05T07:00:47.664Z,99.90
2022-11-05T07:03:15.121Z,99.90
2022-11-05T07:05:46.448Z,99.90
2022-11-05T07:08:13.461Z,99.90
2022-11-05T07:10:40.030Z,99.90
2022-11-05T07:13:08.346Z,99.90
2022-11-05T07:15:35.904Z,99.90
2022-11-05T07:18:02.661Z,99.90
2022-11-05T07:20:33.567Z,99.90
2022-11-05T07:23:02.508Z,99.90
2022-11-05T07:25:31.078Z,99.90
2022-11-05T07:27:57.899Z,99.90
2022-11-05T07:30:24.969Z,99.90
2022-11-05T07:32:51.765Z,99.90
2022-11-05T07:35:18.404Z,99.90
2022-11-05T07:37:55.399Z,99.90
2022-11-05T07:40:23.809Z,99.90
2022-11-05T07:42:52.717Z,99.90
2022-11-05T07:45:19.890Z,99.90
2022-11-05T07:47:48.419Z,99.90
2022-11-05T07:50:19.895Z,99.90
2022-11-05T07:52:47.971Z,99.90
2022-11-05T07:55:15.704Z,99.90
2022-11-05T07:57:43.931Z,99.90
2022-11-05T08:00:14.218Z,99.90
2022-11-05T08:02:42.196Z,99.90
2022-11-05T08:05:09.591Z,99.90
2022-11-05T08:07:36.455Z,99.90
2022-11-05T08:10:04.245Z,99.90
2022-11-05T08:12:32.226Z,99.90
2022-11-05T08:14:58.975Z,99.90
2022-11-05T08:17:25.708Z,99.90
2022-11-05T08:19:52.459Z,99.90
2022-11-05T08:22:19.054Z,99.90
2022-11-05T08:24:45.673Z,99.90
2022-11-05T08:27:12.758Z,99.90
2022-11-05T08:29:39.349Z,99.90
2022-11-05T08:32:05.930Z,99.90
2022-11-05T08:34:32.570Z,99.90
2022-11-05T08:37:01.450Z,99.90
2022-11-05T08:39:28.052Z,99.90
2022-11-05T08:41:54.769Z,99.90
2022-11-05T08:44:21.343Z,99.90
2022-11-05T08:46:48.208Z,99.90
2022-11-05T08:49:14.791Z,99.90
2022-11-05T08:51:41.510Z,99.90
2022-11-05T08:54:08.098Z,99.90
2022-11-05T08:56:34.863Z,99.90
2022-11-05T08:59:01.500Z,99.90
2022-11-05T09:01:28.188Z,99.90
2022-11-05T09:03:54.966Z,99.90
2022-11-05T09:06:21.847Z,99.90
2022-11-05T09:08:48.527Z,99.90
2022-11-05T09:11:15.163Z,99.90
2022-11-05T09:13:41.898Z,99.90
2022-11-05T09:16:22.398Z,99.90
2022-11-05T09:18:50.134Z,99.90
2022-11-05T09:21:17.652Z,99.90
2022-11-05T09:23:45.291Z,99.90
2022-11-05T09:26:13.453Z,99.90
2022-11-05T09:28:40.156Z,99.90
2022-11-05T09:31:08.899Z,99.90
2022-11-05T09:33:37.208Z,99.90
2022-11-05T09:36:04.864Z,99.90
2022-11-05T09:38:34.850Z,99.90
2022-11-05T09:41:17.163Z,99.90
2022-11-05T09:43:51.500Z,99.90
2022-11-05T09:46:56.519Z,99.90
2022-11-05T09:49:40.018Z,99.90
2022-11-05T09:52:13.244Z,99.90
2022-11-05T09:54:40.222Z,99.90
2022-11-05T09:57:11.646Z,99.90
2022-11-05T09:59:47.090Z,99.90
2022-11-05T10:02:20.770Z,99.90
2022-11-05T10:04:51.014Z,99.90
2022-11-05T10:07:23.032Z,99.90
2022-11-05T10:10:01.839Z,99.90
2022-11-05T10:12:42.024Z,99.90
2022-11-05T10:15:17.909Z,99.90
2022-11-05T10:18:16.886Z,99.90
2022-11-05T10:20:44.549Z,99.90
2022-11-05T10:23:20.047Z,99.90
2022-11-05T10:26:01.547Z,99.90
2022-11-05T10:28:30.698Z,99.90
2022-11-05T10:31:03.698Z,99.90
2022-11-05T10:33:54.219Z,99.90
2022-11-05T10:36:32.867Z,99.90
2022-11-05T10:39:12.441Z,99.90
2022-11-05T10:42:15.798Z,99.90
2022-11-05T10:45:14.398Z,99.90
2022-11-05T10:47:46.905Z,99.90
2022-11-05T10:50:18.568Z,99.90
2022-11-05T10:53:02.417Z,99.90
2022-11-05T10:55:32.710Z,99.90
2022-11-05T10:58:17.407Z,99.90
2022-11-05T11:00:46.530Z,99.90
2022-11-05T11:03:32.206Z,99.90
2022-11-05T11:06:04.897Z,99.90
2022-11-05T11:08:35.606Z,99.90
2022-11-05T11:11:10.271Z,99.90
2022-11-05T11:13:58.935Z,99.90
2022-11-05T11:16:27.898Z,99.90
2022-11-05T11:19:00.881Z,99.90
2022-11-05T11:21:29.780Z,99.90
2022-11-05T11:24:03.556Z,99.90
2022-11-05T11:26:33.763Z,99.90
2022-11-05T11:29:07.411Z,99.90
2022-11-05T11:31:38.358Z,99.90
2022-11-05T11:34:07.618Z,99.90
2022-11-05T11:36:46.898Z,99.90
2022-11-05T11:39:22.316Z,99.90
2022-11-05T11:41:54.881Z,99.90
2022-11-05T11:44:27.194Z,99.90
2022-11-05T11:46:58.014Z,99.90
2022-11-05T11:49:30.600Z,99.90
2022-11-05T11:52:04.780Z,99.90
2022-11-05T11:54:32.721Z,99.90
2022-11-05T11:56:59.877Z,99.90
2022-11-05T11:59:53.777Z,99.90
2022-11-05T12:02:27.422Z,86.00
2022-11-05T12:05:04.385Z,89.20
2022-11-05T12:07:49.694Z,88.50
2022-11-05T12:10:35.545Z,49.80
2022-11-05T12:13:44.145Z,99.90
2022-11-05T12:16:22.584Z,95.50
2022-11-05T12:19:03.375Z,99.90
2022-11-05T12:21:59.192Z,99.90
2022-11-05T12:25:08.751Z,99.90
2022-11-05T12:28:01.378Z,99.90
2022-11-05T12:30:38.946Z,99.90
2022-11-05T12:33:40.898Z,99.90
2022-11-05T12:36:34.064Z,99.90
2022-11-05T12:39:20.239Z,72.00
2022-11-05T12:42:01.883Z,74.60
2022-11-05T12:45:01.497Z,16.10
2022-11-05T12:47:47.025Z,24.00
2022-11-05T12:50:33.451Z,1.00
2022-11-05T12:53:28.235Z,1.00
2022-11-05T12:55:56.650Z,1.00
2022-11-05T12:58:37.116Z,1.00
2022-11-05T13:01:17.473Z,2.60
2022-11-05T13:03:52.121Z,23.80
2022-11-05T13:06:27.725Z,1.00
2022-11-05T13:09:12.847Z,1.00
2022-11-05T13:11:51.786Z,1.00
2022-11-05T13:14:26.926Z,1.00
2022-11-05T13:17:02.371Z,1.00
2022-11-05T13:19:34.802Z,1.00
2022-11-05T13:22:13.253Z,1.00
2022-11-05T13:24:50.896Z,1.00
2022-11-05T13:27:50.446Z,1.00
2022-11-05T13:30:22.986Z,1.00
2022-11-05T13:32:58.070Z,1.00
2022-11-05T13:35:37.379Z,1.00
2022-11-05T13:38:26.043Z,1.00
2022-11-05T13:41:14.303Z,1.00
2022-11-05T13:43:40.930Z,1.00
2022-11-05T13:46:49.380Z,1.00
2022-11-05T13:49:30.523Z,1.00
2022-11-05T13:52:28.037Z,1.00
2022-11-05T13:55:21.777Z,1.00
2022-11-05T13:58:26.562Z,1.00
2022-11-05T14:05:01.022Z,1.00
2022-11-05T14:07:31.535Z,1.00
2022-11-05T14:10:14.231Z,1.00
2022-11-05T14:12:41.419Z,1.00
2022-11-05T14:15:36.524Z,4.00
2022-11-05T14:18:06.158Z,3.70
2022-11-05T14:20:32.673Z,2.00
2022-11-05T14:23:17.766Z,27.90
2022-11-05T14:25:44.331Z,61.80
2022-11-05T14:28:35.032Z,90.50
2022-11-05T14:31:31.416Z,72.50
2022-11-05T14:34:10.954Z,50.00
2022-11-05T14:36:39.601Z,50.60
2022-11-05T14:39:25.163Z,47.50
2022-11-05T14:42:03.407Z,57.60
2022-11-05T14:44:35.350Z,60.50
2022-11-05T14:47:05.253Z,80.60
2022-11-05T14:49:47.743Z,94.70
2022-11-05T14:52:16.777Z,99.90
2022-11-05T14:54:52.574Z,99.90
2022-11-05T14:57:41.906Z,99.90
2022-11-05T15:00:32.302Z,99.90
2022-11-05T15:03:04.326Z,99.90
2022-11-05T15:05:38.685Z,99.90
2022-11-05T15:08:26.247Z,99.90
2022-11-05T15:11:06.534Z,99.90
2022-11-05T15:13:38.490Z,99.90
2022-11-05T15:16:06.932Z,99.90
2022-11-05T15:18:43.735Z,99.90
2022-11-05T15:21:15.060Z,99.90
2022-11-05T15:23:43.982Z,99.90
2022-11-05T15:26:22.791Z,99.90
2022-11-05T15:28:54.137Z,99.90
2022-11-05T15:31:28.527Z,99.90
2022-11-05T15:34:20.852Z,99.90
2022-11-05T15:37:00.127Z,99.90
2022-11-05T15:39:32.789Z,99.90
2022-11-05T15:42:04.752Z,99.90
2022-11-05T15:44:39.582Z,99.90
2022-11-05T15:47:24.860Z,99.90
2022-11-05T15:49:59.450Z,99.90
2022-11-05T15:52:37.273Z,99.90
2022-11-05T15:55:12.878Z,99.90
2022-11-05T15:57:56.724Z,99.90
2022-11-05T16:00:26.017Z,99.90
2022-11-05T16:02:57.128Z,99.90
2022-11-05T16:05:26.982Z,99.90
2022-11-05T16:07:53.841Z,99.90
2022-11-05T16:10:29.727Z,99.90
2022-11-05T16:12:56.671Z,99.90
2022-11-05T16:15:26.212Z,99.90
2022-11-05T16:17:58.505Z,99.90
2022-11-05T16:20:36.139Z,99.90
2022-11-05T16:23:06.028Z,99.90
2022-11-05T16:25:41.446Z,99.90
2022-11-05T16:28:24.345Z,99.90
2022-11-05T16:31:02.539Z,99.90
2022-11-05T16:33:40.117Z,99.90
2022-11-05T16:36:08.315Z,99.90
2022-11-05T16:38:34.992Z,99.90
2022-11-05T16:41:01.606Z,99.90
2022-11-05T16:43:28.311Z,99.90
2022-11-05T16:45:59.249Z,99.90
2022-11-05T16:48:27.169Z,99.90
2022-11-05T16:50:54.145Z,99.90
2022-11-05T16:53:20.846Z,99.90
2022-11-05T16:55:47.781Z,99.90
2022-11-05T16:58:23.066Z,99.90
2022-11-05T17:00:51.782Z,99.90
2022-11-05T17:03:18.935Z,99.90
2022-11-05T17:05:45.670Z,99.90
2022-11-05T17:08:12.565Z,99.90
2022-11-05T17:10:39.286Z,99.90
2022-11-05T17:13:05.902Z,99.90
2022-11-05T17:15:35.466Z,99.90
2022-11-05T17:18:03.763Z,99.90
2022-11-05T17:20:40.898Z,99.90
2022-11-05T17:23:13.202Z,99.90
2022-11-05T17:25:41.764Z,99.90
2022-11-05T17:28:09.912Z,99.90
2022-11-05T17:30:38.601Z,99.90
2022-11-05T17:33:07.027Z,99.90
2022-11-05T17:35:33.740Z,99.90
2022-11-05T17:38:00.541Z,99.90
2022-11-05T17:40:28.335Z,99.90
2022-11-05T17:42:54.950Z,99.90
2022-11-05T17:45:21.770Z,99.90
2022-11-05T17:47:48.380Z,99.90
2022-11-05T17:50:16.064Z,99.90
2022-11-05T17:52:43.401Z,99.90
2022-11-05T17:55:17.438Z,99.90
2022-11-05T17:57:49.789Z,99.90
2022-11-05T18:00:19.698Z,99.90
2022-11-05T18:02:48.318Z,99.90
2022-11-05T18:05:16.336Z,99.90
2022-11-05T18:07:43.757Z,99.90
2022-11-05T18:10:10.545Z,99.90
2022-11-05T18:12:37.224Z,99.90
2022-11-05T18:15:04.688Z,99.90
2022-11-05T18:17:31.337Z,99.90
2022-11-05T18:19:58.353Z,99.90
2022-11-05T18:22:26.544Z,99.90
2022-11-05T18:24:54.337Z,99.90
2022-11-05T18:27:24.395Z,99.90
2022-11-05T18:29:51.213Z,99.90
2022-11-05T18:32:17.918Z,99.90
2022-11-05T18:34:44.693Z,99.90
2022-11-05T18:37:11.434Z,99.90
2022-11-05T18:39:38.370Z,99.90
2022-11-05T18:42:05.079Z,99.90
2022-11-05T18:44:37.837Z,99.90
2022-11-05T18:47:06.757Z,99.90
2022-11-05T18:49:33.382Z,99.90
2022-11-05T18:52:00.032Z,99.90
2022-11-05T18:54:26.779Z,99.90
2022-11-05T18:56:53.424Z,99.90
2022-11-05T18:59:39.095Z,99.90
2022-11-05T19:02:07.803Z,99.90
2022-11-05T19:04:38.394Z,99.90
2022-11-05T19:07:06.287Z,99.90
2022-11-05T19:09:37.816Z,99.90
2022-11-05T19:12:06.286Z,99.90
2022-11-05T19:14:33.305Z,99.90
2022-11-05T19:17:00.524Z,99.90
2022-11-05T19:19:27.677Z,99.90
2022-11-05T19:21:54.340Z,99.90
2022-11-05T19:24:20.919Z,99.90
2022-11-05T19:26:47.998Z,99.90
2022-11-05T19:29:14.621Z,99.90
2022-11-05T19:31:41.283Z,99.90
2022-11-05T19:34:08.232Z,99.90
2022-11-05T19:36:34.987Z,99.90
2022-11-05T19:39:06.282Z,99.90
2022-11-05T19:41:33.004Z,99.90
2022-11-05T19:44:01.685Z,99.90
2022-11-05T19:46:29.703Z,99.90
2022-11-05T19:48:57.339Z,99.90
2022-11-05T19:51:26.519Z,99.90
2022-11-05T19:53:54.994Z,99.90
2022-11-05T19:56:27.578Z,99.90
2022-11-05T19:58:54.437Z,99.90
2022-11-05T20:01:23.728Z,99.90
2022-11-05T20:03:51.295Z,99.90
2022-11-05T20:06:21.092Z,99.90
2022-11-05T20:09:15.269Z,99.90
2022-11-05T20:11:39.207Z,99.90
2022-11-05T20:14:07.263Z,99.90
2022-11-05T20:16:38.129Z,99.90
2022-11-05T20:19:06.950Z,99.90
2022-11-05T20:21:34.557Z,99.90
2022-11-05T20:24:01.578Z,99.90
2022-11-05T20:26:28.781Z,99.90
2022-11-05T20:28:55.652Z,99.90
2022-11-05T20:31:22.743Z,99.90
2022-11-05T20:33:49.519Z,99.90
2022-11-05T20:36:19.641Z,99.90
2022-11-05T20:38:51.351Z,99.90
2022-11-05T20:41:18.585Z,99.90
2022-11-05T20:43:46.780Z,99.90
2022-11-05T20:46:15.648Z,99.90
2022-11-05T20:48:42.985Z,99.90
2022-11-05T20:51:12.641Z,99.90
2022-11-05T20:53:39.459Z,99.90
2022-11-05T20:56:10.205Z,99.90
2022-11-05T20:58:38.040Z,99.90
2022-11-05T21:01:05.702Z,99.90
2022-11-05T21:03:32.892Z,99.90
2022-11-05T21:06:04.080Z,99.90
2022-11-05T21:08:31.019Z,99.90
2022-11-05T21:10:58.188Z,99.90
2022-11-05T21:13:25.483Z,99.90
2022-11-05T21:15:54.600Z,99.90
2022-11-05T21:18:23.454Z,99.90
2022-11-05T21:20:50.643Z,99.90
2022-11-05T21:23:17.854Z,99.90
2022-11-05T21:25:44.866Z,99.90
2022-11-05T21:28:13.486Z,99.90
2022-11-05T21:30:44.864Z,99.90
2022-11-05T21:33:13.405Z,99.90
2022-11-05T21:35:44.959Z,99.90
2022-11-05T21:38:13.806Z,99.90
2022-11-05T21:40:41.019Z,99.90
2022-11-05T21:43:08.069Z,99.90
2022-11-05T21:45:35.081Z,99.90
2022-11-05T21:48:01.848Z,99.90
2022-11-05T21:50:46.970Z,99.90
2022-11-05T21:53:33.767Z,99.90
2022-11-05T21:56:19.821Z,99.90
2022-11-05T21:59:05.103Z,99.90
2022-11-05T22:01:31.859Z,99.90
2022-11-05T22:04:02.835Z,99.90
2022-11-05T22:06:32.740Z,99.90
2022-11-05T22:08:59.376Z,99.90
2022-11-05T22:11:25.991Z,99.90
2022-11-05T22:13:53.305Z,99.90
2022-11-05T22:16:19.910Z,99.90
2022-11-05T22:18:46.507Z,99.90
2022-11-05T22:21:19.412Z,99.90
2022-11-05T22:23:46.472Z,99.90
2022-11-05T22:26:13.108Z,99.90
2022-11-05T22:28:39.699Z,99.90
2022-11-05T22:31:15.468Z,99.90
2022-11-05T22:33:42.870Z,99.90
2022-11-05T22:36:10.652Z,99.90
2022-11-05T22:38:37.355Z,99.90
2022-11-05T22:41:12.240Z,99.90
2022-11-05T22:43:39.111Z,99.90
2022-11-05T22:46:08.558Z,99.90
2022-11-05T22:48:36.256Z,99.90
2022-11-05T22:51:11.072Z,99.90
2022-11-05T22:53:38.879Z,99.90
2022-11-05T22:56:07.910Z,99.90
2022-11-05T22:58:34.576Z,99.90
2022-11-05T23:01:02.069Z,99.90
2022-11-05T23:03:30.055Z,99.90
2022-11-05T23:06:01.713Z,99.90
2022-11-05T23:08:46.856Z,99.90
2022-11-05T23:11:38.518Z,99.90
2022-11-05T23:14:07.490Z,99.90
2022-11-05T23:16:53.252Z,99.90
2022-11-05T23:19:39.383Z,99.90
2022-11-05T23:22:30.087Z,99.90
2022-11-05T23:24:56.867Z,99.90
2022-11-05T23:27:23.899Z,99.90
2022-11-05T23:29:50.531Z,99.90
2022-11-05T23:32:26.178Z,99.90
2022-11-05T23:34:54.170Z,99.90
2022-11-05T23:37:40.755Z,99.90
2022-11-05T23:40:10.535Z,99.90
2022-11-05T23:42:55.611Z,99.90
2022-11-05T23:45:41.170Z,99.90
2022-11-05T23:48:34.918Z,99.90
2022-11-05T23:51:08.877Z,99.90
2022-11-05T23:53:37.859Z,99.90
2022-11-05T23:56:08.319Z,99.90
2022-11-05T23:58:36.346Z,99.90
